Time;durP1;ratioP1;P1;durP2;ratioP2;P2;SDS_P1;SDS_P2;PMS_P1;PMS_P2;Temp;Humidity;BMP_temperature;BMP_pressure;BME280_temperature;BME280_humidity;BME280_pressure;Samples;Min_cycle;Max_cycle;Signal;HPM_P1;HPM_P2
2023/12/04 00:00:35;;;;;;;25.52;11.27;;;0.30;99.90;;;;;;5094575;28;20467;-49
2023/12/04 00:03:01;;;;;;;24.35;11.35;;;0.30;99.90;;;;;;5094685;28;20483;-52
2023/12/04 00:05:27;;;;;;;26.30;11.73;;;0.30;99.90;;;;;;5094814;28;20052;-49
2023/12/04 00:07:52;;;;;;;21.65;10.57;;;0.30;99.90;;;;;;5094556;28;20564;-49
2023/12/04 00:10:18;;;;;;;24.98;11.77;;;0.30;99.90;;;;;;5094600;28;20387;-49
2023/12/04 00:12:44;;;;;;;23.85;11.30;;;0.30;99.90;;;;;;5093646;28;20453;-51
2023/12/04 00:15:10;;;;;;;23.45;11.95;;;0.40;99.90;;;;;;5094343;28;20529;-49
2023/12/04 00:17:39;;;;;;;22.45;10.77;;;0.30;99.90;;;;;;5094348;28;20095;-49
2023/12/04 00:20:06;;;;;;;25.13;11.10;;;0.30;99.90;;;;;;5093717;28;20077;-49
2023/12/04 00:22:32;;;;;;;20.80;10.15;;;0.30;99.90;;;;;;5094272;28;20047;-49
2023/12/04 00:24:58;;;;;;;25.15;12.10;;;0.30;99.90;;;;;;5094626;28;20067;-49
2023/12/04 00:27:26;;;;;;;26.67;12.25;;;0.30;99.90;;;;;;5094292;28;20088;-49
2023/12/04 00:29:53;;;;;;;22.70;11.00;;;0.30;99.90;;;;;;5094165;28;20048;-51
2023/12/04 00:32:18;;;;;;;22.80;10.98;;;0.30;99.90;;;;;;5094025;28;20512;-48
2023/12/04 00:34:44;;;;;;;21.90;10.43;;;0.30;99.90;;;;;;5094242;28;20054;-51
2023/12/04 00:37:10;;;;;;;22.50;11.65;;;0.30;99.90;;;;;;5094158;28;20052;-50
2023/12/04 00:39:35;;;;;;;20.95;11.18;;;0.30;99.90;;;;;;5092996;28;20083;-49
2023/12/04 00:42:01;;;;;;;20.30;10.52;;;0.30;99.90;;;;;;5094089;28;20051;-49
2023/12/04 00:44:27;;;;;;;20.65;10.55;;;0.30;99.90;;;;;;5094087;28;20414;-51
2023/12/04 00:46:52;;;;;;;24.50;12.25;;;0.30;99.90;;;;;;5126855;27;20135;-49
2023/12/04 00:49:18;;;;;;;23.75;11.73;;;0.30;99.90;;;;;;5094160;28;20101;-51
2023/12/04 00:51:44;;;;;;;25.85;11.15;;;0.30;99.90;;;;;;5093945;28;20170;-49
2023/12/04 00:54:11;;;;;;;21.83;10.85;;;0.30;99.90;;;;;;5093750;28;20048;-49
2023/12/04 00:56:39;;;;;;;21.15;11.38;;;0.30;99.90;;;;;;5093871;28;20039;-49
2023/12/04 00:59:06;;;;;;;22.05;10.48;;;0.30;99.90;;;;;;5093628;28;20048;-50
2023/12/04 01:01:32;;;;;;;21.98;11.20;;;0.30;99.90;;;;;;5092321;28;20070;-50
2023/12/04 01:03:59;;;;;;;24.53;11.40;;;0.30;99.90;;;;;;5093601;28;20147;-49
2023/12/04 01:06:25;;;;;;;23.48;11.30;;;0.30;99.90;;;;;;5094340;28;20403;-49
2023/12/04 01:08:52;;;;;;;28.27;11.52;;;0.20;99.90;;;;;;5093760;28;20087;-50
2023/12/04 01:11:19;;;;;;;24.75;10.80;;;0.20;99.90;;;;;;5093833;28;20048;-51
2023/12/04 01:13:45;;;;;;;25.38;10.93;;;0.20;99.90;;;;;;5093641;28;20046;-49
2023/12/04 01:16:11;;;;;;;22.70;11.27;;;0.20;99.90;;;;;;5093626;28;20505;-50
2023/12/04 01:18:37;;;;;;;20.23;11.05;;;0.20;99.90;;;;;;5093670;28;20317;-50
2023/12/04 01:21:03;;;;;;;24.52;11.48;;;0.20;99.90;;;;;;5093617;28;20044;-51
2023/12/04 01:23:29;;;;;;;23.25;10.38;;;0.20;99.90;;;;;;5093463;28;20040;-49
2023/12/04 01:25:54;;;;;;;22.08;10.38;;;0.20;99.90;;;;;;5093377;28;20063;-49
2023/12/04 01:28:20;;;;;;;19.38;10.32;;;0.20;99.90;;;;;;5092318;28;20052;-49
2023/12/04 01:30:46;;;;;;;23.30;10.38;;;0.20;99.90;;;;;;5093237;28;20048;-49
2023/12/04 01:33:12;;;;;;;23.13;10.52;;;0.20;99.90;;;;;;5093530;28;20456;-52
2023/12/04 01:35:37;;;;;;;22.60;11.35;;;0.20;99.90;;;;;;5093615;28;20047;-49
2023/12/04 01:38:03;;;;;;;21.45;11.02;;;0.20;99.90;;;;;;5093469;28;20440;-49
2023/12/04 01:40:28;;;;;;;21.55;10.18;;;0.20;99.90;;;;;;5093157;28;20486;-49
2023/12/04 01:42:54;;;;;;;23.23;10.85;;;0.20;99.90;;;;;;5093088;28;20032;-50
2023/12/04 01:45:20;;;;;;;25.95;11.05;;;0.20;99.90;;;;;;5093251;28;20051;-50
2023/12/04 01:47:48;;;;;;;21.65;10.48;;;0.30;99.90;;;;;;5093288;28;20047;-50
2023/12/04 01:50:15;;;;;;;23.52;11.30;;;0.20;99.90;;;;;;5093720;28;20048;-50
2023/12/04 01:52:41;;;;;;;27.13;11.00;;;0.20;99.90;;;;;;5093229;28;20498;-49
2023/12/04 01:55:09;;;;;;;22.05;10.57;;;0.20;99.90;;;;;;5092269;28;20044;-52
2023/12/04 01:57:35;;;;;;;22.45;11.13;;;0.20;99.90;;;;;;5093301;28;20123;-50
2023/12/04 02:00:01;;;;;;;23.38;11.20;;;0.20;99.90;;;;;;5093034;28;20043;-50
2023/12/04 02:02:28;;;;;;;21.63;10.38;;;0.20;99.90;;;;;;5092919;28;20048;-50
2023/12/04 02:04:59;;;;;;;20.67;10.35;;;0.20;99.90;;;;;;5093083;28;20092;-49
2023/12/04 02:07:25;;;;;;;21.88;9.35;;;0.20;99.90;;;;;;5092996;28;20052;-53
2023/12/04 02:09:51;;;;;;;22.87;11.10;;;0.20;99.90;;;;;;5092847;28;20044;-52
2023/12/04 02:12:17;;;;;;;21.27;10.05;;;0.20;99.90;;;;;;5096646;28;20081;-52
2023/12/04 02:14:43;;;;;;;20.50;10.40;;;0.20;99.90;;;;;;5096511;28;20436;-49
2023/12/04 02:17:09;;;;;;;21.95;11.45;;;0.20;99.90;;;;;;5095767;28;20048;-49
2023/12/04 02:19:36;;;;;;;21.95;11.30;;;0.20;99.90;;;;;;5096694;28;20079;-49
2023/12/04 02:22:01;;;;;;;20.25;10.35;;;0.20;99.90;;;;;;5096526;28;20090;-49
2023/12/04 02:24:27;;;;;;;21.80;9.95;;;0.20;99.90;;;;;;5096408;28;20044;-49
2023/12/04 02:26:58;;;;;;;21.93;11.27;;;0.20;99.90;;;;;;5096402;28;20074;-49
2023/12/04 02:29:32;;;;;;;24.15;12.18;;;0.20;99.90;;;;;;5096953;28;20097;-49
2023/12/04 02:32:00;;;;;;;20.98;10.02;;;0.20;99.90;;;;;;5096485;28;20044;-49
2023/12/04 02:34:28;;;;;;;24.75;10.25;;;0.20;99.90;;;;;;5096396;28;20085;-49
2023/12/04 02:36:55;;;;;;;23.92;10.75;;;0.20;99.90;;;;;;5096221;28;20098;-49
2023/12/04 02:39:21;;;;;;;23.90;11.00;;;0.20;99.90;;;;;;5096153;28;20047;-49
2023/12/04 02:41:48;;;;;;;21.00;10.35;;;0.30;99.90;;;;;;5096199;28;20043;-49
2023/12/04 02:44:13;;;;;;;24.02;11.35;;;0.20;99.90;;;;;;5096186;28;20101;-49
2023/12/04 02:46:39;;;;;;;21.67;10.93;;;0.20;99.90;;;;;;5096307;28;20048;-49
2023/12/04 02:49:05;;;;;;;25.00;11.30;;;0.20;99.90;;;;;;5096198;28;20475;-48
2023/12/04 02:51:30;;;;;;;21.50;9.98;;;0.20;99.90;;;;;;5095919;28;20051;-49
2023/12/04 02:53:56;;;;;;;21.80;10.10;;;0.20;99.90;;;;;;5095975;28;20047;-49
2023/12/04 02:56:22;;;;;;;26.98;11.35;;;0.20;99.90;;;;;;5095834;28;20437;-49
2023/12/04 02:58:47;;;;;;;22.55;9.35;;;0.20;99.90;;;;;;5096012;28;20494;-49
2023/12/04 03:01:13;;;;;;;20.83;10.55;;;0.20;99.90;;;;;;5096280;28;20505;-50
2023/12/04 03:03:39;;;;;;;20.92;10.27;;;0.20;99.90;;;;;;5095453;28;20430;-49
2023/12/04 03:06:05;;;;;;;21.75;11.10;;;0.20;99.90;;;;;;5095707;28;20048;-49
2023/12/04 03:08:31;;;;;;;22.02;9.57;;;0.20;99.90;;;;;;5095881;28;20105;-49
2023/12/04 03:10:56;;;;;;;23.42;10.68;;;0.20;99.90;;;;;;5095473;28;20048;-49
2023/12/04 03:13:22;;;;;;;22.95;10.52;;;0.20;99.90;;;;;;5095639;28;20489;-49
2023/12/04 03:15:48;;;;;;;20.80;9.88;;;0.20;99.90;;;;;;5095674;28;20056;-49
2023/12/04 03:18:13;;;;;;;20.67;10.07;;;0.20;99.90;;;;;;5095836;28;20394;-49
2023/12/04 03:20:39;;;;;;;19.80;9.60;;;0.30;99.90;;;;;;5095464;28;20403;-48
2023/12/04 03:23:05;;;;;;;20.17;9.50;;;0.30;99.90;;;;;;5094375;28;20127;-49
2023/12/04 03:25:30;;;;;;;24.05;10.98;;;0.30;99.90;;;;;;5095392;28;20051;-48
2023/12/04 03:27:56;;;;;;;21.13;10.38;;;0.20;99.90;;;;;;5095328;28;20391;-48
2023/12/04 03:30:22;;;;;;;21.95;10.23;;;0.30;99.90;;;;;;5095294;28;20130;-49
2023/12/04 03:32:47;;;;;;;22.23;10.82;;;0.30;99.90;;;;;;5095156;28;20040;-49
2023/12/04 03:35:13;;;;;;;22.65;10.20;;;0.30;99.90;;;;;;5095066;28;20043;-49
2023/12/04 03:37:39;;;;;;;21.00;10.25;;;0.30;99.90;;;;;;5095041;28;20118;-49
2023/12/04 03:40:05;;;;;;;20.33;10.38;;;0.30;99.90;;;;;;5094839;28;20059;-49
2023/12/04 03:42:30;;;;;;;22.48;10.50;;;0.30;99.90;;;;;;5095036;28;20070;-49
2023/12/04 03:44:56;;;;;;;21.08;9.93;;;0.30;99.90;;;;;;5095087;28;20070;-51
2023/12/04 03:47:23;;;;;;;23.83;10.98;;;0.30;99.90;;;;;;5094912;28;20078;-49
2023/12/04 03:49:49;;;;;;;22.38;10.35;;;0.30;99.90;;;;;;5095153;28;20380;-49
2023/12/04 03:52:14;;;;;;;22.40;10.40;;;0.40;99.90;;;;;;5094837;28;20043;-48
2023/12/04 03:54:40;;;;;;;22.20;11.00;;;0.30;99.90;;;;;;5094728;28;20036;-49
2023/12/04 03:57:05;;;;;;;21.90;11.57;;;0.30;99.90;;;;;;5094880;28;20097;-48
2023/12/04 03:59:31;;;;;;;19.98;9.80;;;0.30;99.90;;;;;;5094791;28;20036;-49
2023/12/04 04:01:57;;;;;;;24.55;11.73;;;0.30;99.90;;;;;;5094340;28;20044;-50
2023/12/04 04:04:23;;;;;;;23.85;11.55;;;0.30;99.90;;;;;;5094783;28;20048;-49
2023/12/04 04:06:48;;;;;;;21.35;10.90;;;0.40;99.90;;;;;;5094500;28;20398;-48
2023/12/04 04:09:14;;;;;;;19.45;9.55;;;0.40;99.90;;;;;;5094454;28;20474;-49
2023/12/04 04:11:40;;;;;;;20.70;9.68;;;0.40;99.90;;;;;;5094592;28;20048;-49
2023/12/04 04:14:05;;;;;;;22.67;10.40;;;0.40;99.90;;;;;;5095101;28;20131;-49
2023/12/04 04:16:31;;;;;;;25.08;10.40;;;0.40;99.90;;;;;;5094546;28;20551;-49
2023/12/04 04:18:57;;;;;;;23.15;10.35;;;0.40;99.90;;;;;;5094320;28;20544;-49
2023/12/04 04:21:23;;;;;;;22.70;11.32;;;0.40;99.90;;;;;;5094462;28;20123;-49
2023/12/04 04:23:48;;;;;;;23.40;11.65;;;0.40;99.90;;;;;;5094037;28;20083;-48
2023/12/04 04:26:14;;;;;;;22.02;9.77;;;0.40;99.90;;;;;;5094309;28;20048;-49
2023/12/04 04:28:40;;;;;;;23.30;10.90;;;0.40;99.90;;;;;;5094315;28;20047;-50
2023/12/04 04:31:05;;;;;;;19.33;10.45;;;0.40;99.90;;;;;;5094166;28;20078;-50
2023/12/04 04:33:31;;;;;;;19.00;9.45;;;0.40;99.90;;;;;;5093123;28;20052;-49
2023/12/04 04:35:57;;;;;;;23.60;10.75;;;0.40;99.90;;;;;;5094171;28;20051;-49
2023/12/04 04:38:22;;;;;;;21.38;10.65;;;0.40;99.90;;;;;;5093852;28;20050;-49
2023/12/04 04:40:48;;;;;;;21.40;9.88;;;0.40;99.90;;;;;;5094151;28;20390;-48
2023/12/04 04:43:14;;;;;;;18.65;9.68;;;0.40;99.90;;;;;;5093989;28;20112;-49
2023/12/04 04:45:39;;;;;;;20.70;10.02;;;0.40;99.90;;;;;;5094315;28;20152;-49
2023/12/04 04:48:05;;;;;;;22.70;10.40;;;0.40;99.90;;;;;;5093874;28;20398;-51
2023/12/04 04:50:31;;;;;;;18.92;9.75;;;0.40;99.90;;;;;;5093838;28;20118;-48
2023/12/04 04:52:56;;;;;;;18.35;9.85;;;0.50;99.90;;;;;;5093822;28;20093;-49
2023/12/04 04:55:22;;;;;;;25.30;10.65;;;0.40;99.90;;;;;;5094123;28;20048;-52
2023/12/04 04:57:47;;;;;;;19.50;10.68;;;0.40;99.90;;;;;;5093891;28;20511;-49
2023/12/04 05:00:13;;;;;;;20.45;10.55;;;0.40;99.90;;;;;;5093828;28;20475;-50
2023/12/04 05:02:39;;;;;;;21.92;10.02;;;0.40;99.90;;;;;;5092298;28;20486;-49
2023/12/04 05:05:06;;;;;;;24.77;11.60;;;0.50;99.90;;;;;;5093672;28;20052;-50
2023/12/04 05:07:32;;;;;;;20.63;9.52;;;0.40;99.90;;;;;;5093593;28;20113;-49
2023/12/04 05:09:58;;;;;;;19.48;9.55;;;0.50;99.90;;;;;;5093917;28;20384;-51
2023/12/04 05:12:23;;;;;;;22.50;10.15;;;0.40;99.90;;;;;;5093552;28;20040;-49
2023/12/04 05:14:49;;;;;;;20.73;10.13;;;0.40;99.90;;;;;;5093751;28;20491;-50
2023/12/04 05:17:15;;;;;;;20.85;9.55;;;0.50;99.90;;;;;;5092785;28;20056;-52
2023/12/04 05:19:40;;;;;;;20.50;9.93;;;0.40;99.90;;;;;;5093590;28;20479;-50
2023/12/04 05:22:06;;;;;;;23.10;10.80;;;0.50;99.90;;;;;;5093423;28;20058;-48
2023/12/04 05:24:32;;;;;;;22.35;9.90;;;0.40;99.90;;;;;;5093346;28;20486;-49
2023/12/04 05:26:58;;;;;;;21.98;9.75;;;0.50;99.90;;;;;;5093555;28;20056;-49
2023/12/04 05:29:24;;;;;;;21.73;10.03;;;0.40;99.90;;;;;;5092523;28;20044;-50
2023/12/04 05:31:49;;;;;;;21.20;9.80;;;0.50;99.90;;;;;;5092664;28;20170;-49
2023/12/04 05:34:15;;;;;;;18.13;9.25;;;0.40;99.90;;;;;;5093524;28;20040;-49
2023/12/04 05:36:40;;;;;;;19.17;9.32;;;0.40;99.90;;;;;;5093403;28;20548;-51
2023/12/04 05:39:07;;;;;;;22.70;10.82;;;0.50;99.90;;;;;;5091988;28;20567;-49
2023/12/04 05:41:32;;;;;;;23.20;10.20;;;0.40;99.90;;;;;;5093455;28;20048;-49
2023/12/04 05:43:58;;;;;;;21.55;9.50;;;0.50;99.90;;;;;;5126615;27;20097;-48
2023/12/04 05:46:23;;;;;;;22.73;10.32;;;0.40;99.90;;;;;;5095682;28;20506;-49
2023/12/04 05:48:49;;;;;;;21.27;10.35;;;0.40;99.90;;;;;;5097276;28;20452;-48
2023/12/04 05:51:15;;;;;;;21.08;9.88;;;0.40;99.90;;;;;;5097271;28;20048;-49
2023/12/04 05:53:41;;;;;;;20.98;10.35;;;0.40;99.90;;;;;;5097334;28;20036;-52
2023/12/04 05:56:08;;;;;;;20.83;9.20;;;0.40;99.90;;;;;;5097175;28;20052;-51
2023/12/04 05:58:35;;;;;;;22.80;10.93;;;0.40;99.90;;;;;;5097080;28;20062;-50
2023/12/04 06:01:00;;;;;;;21.42;10.40;;;0.40;99.90;;;;;;5097137;28;20044;-49
2023/12/04 06:03:26;;;;;;;21.27;9.82;;;0.40;99.90;;;;;;5129616;27;20105;-51
2023/12/04 06:05:52;;;;;;;18.63;9.57;;;0.40;99.90;;;;;;5095737;28;20062;-51
2023/12/04 06:08:17;;;;;;;22.13;10.82;;;0.40;99.90;;;;;;5096820;28;20110;-53
2023/12/04 06:10:43;;;;;;;22.27;9.82;;;0.50;99.90;;;;;;5096970;28;20051;-49
2023/12/04 06:13:09;;;;;;;21.52;10.25;;;0.40;99.90;;;;;;5096849;28;20123;-53
2023/12/04 06:15:34;;;;;;;22.35;9.88;;;0.40;99.90;;;;;;5096005;28;20593;-51
2023/12/04 06:18:00;;;;;;;20.48;9.65;;;0.40;99.90;;;;;;5096706;28;20052;-48
2023/12/04 06:20:26;;;;;;;22.67;10.05;;;0.40;99.90;;;;;;5096464;28;20044;-51
2023/12/04 06:22:52;;;;;;;18.92;9.05;;;0.40;99.90;;;;;;5095297;28;20544;-53
2023/12/04 06:25:18;;;;;;;21.38;9.45;;;0.40;99.90;;;;;;5096385;28;20551;-52
2023/12/04 06:27:44;;;;;;;25.55;10.25;;;0.40;99.90;;;;;;5095642;28;20479;-50
2023/12/04 06:30:10;;;;;;;25.23;10.73;;;0.40;99.90;;;;;;5095834;28;20487;-49
2023/12/04 06:32:36;;;;;;;21.55;10.15;;;0.40;99.90;;;;;;5096486;28;20039;-50
2023/12/04 06:35:03;;;;;;;22.23;10.20;;;0.40;99.90;;;;;;5096293;28;20491;-52
2023/12/04 06:37:29;;;;;;;23.95;10.85;;;0.40;99.90;;;;;;5078307;28;20059;-51
2023/12/04 06:39:59;;;;;;;21.92;10.68;;;0.40;99.90;;;;;;5096342;28;20047;-49
2023/12/04 06:42:25;;;;;;;20.63;10.80;;;0.40;99.90;;;;;;5096235;28;20482;-51
2023/12/04 06:44:51;;;;;;;21.95;11.02;;;0.40;99.90;;;;;;5096087;28;20040;-51
2023/12/04 06:47:22;;;;;;;18.83;9.57;;;0.40;99.90;;;;;;5096110;28;20101;-50
2023/12/04 06:49:47;;;;;;;22.30;10.23;;;0.40;99.90;;;;;;5096142;28;20123;-50
2023/12/04 06:52:13;;;;;;;22.15;10.00;;;0.40;99.90;;;;;;5096139;28;20141;-50
2023/12/04 06:54:39;;;;;;;20.90;9.40;;;0.40;99.90;;;;;;5096494;28;20390;-50
2023/12/04 06:57:04;;;;;;;20.75;9.50;;;0.40;99.90;;;;;;5095710;28;20048;-50
2023/12/04 06:59:30;;;;;;;20.70;8.82;;;0.40;99.90;;;;;;5096153;28;20051;-49
2023/12/04 07:01:56;;;;;;;21.02;10.18;;;0.40;99.90;;;;;;5095836;28;20048;-51
2023/12/04 07:04:21;;;;;;;18.65;9.15;;;0.40;99.90;;;;;;5095458;28;20108;-49
2023/12/04 07:06:50;;;;;;;18.40;9.35;;;0.40;99.90;;;;;;5095604;28;20056;-49
2023/12/04 07:09:16;;;;;;;18.95;9.27;;;0.40;99.90;;;;;;5095859;28;20036;-53
2023/12/04 07:11:43;;;;;;;21.95;10.48;;;0.40;99.90;;;;;;5095782;28;20048;-50
2023/12/04 07:14:09;;;;;;;21.15;9.73;;;0.40;99.90;;;;;;5095630;28;20036;-49
2023/12/04 07:16:42;;;;;;;20.38;9.13;;;0.50;99.90;;;;;;5095481;28;20053;-49
2023/12/04 07:19:09;;;;;;;19.98;9.48;;;0.40;99.90;;;;;;5095329;28;20047;-49
2023/12/04 07:21:35;;;;;;;;;;;0.40;99.90;;;;;;5096598;28;20114;-49
2023/12/04 07:24:01;;;;;;;20.23;9.43;;;0.40;99.90;;;;;;5095491;28;19959;-51
2023/12/04 07:26:26;;;;;;;21.25;9.30;;;0.40;99.90;;;;;;5095330;28;20040;-49
2023/12/04 07:28:52;;;;;;;18.52;8.88;;;0.40;99.90;;;;;;5095310;28;20055;-49
2023/12/04 07:31:17;;;;;;;18.55;9.60;;;0.40;99.90;;;;;;5095369;28;20047;-49
2023/12/04 07:33:43;;;;;;;19.10;8.45;;;0.40;99.90;;;;;;5095203;28;20083;-49
2023/12/04 07:36:09;;;;;;;20.67;9.25;;;0.40;99.90;;;;;;5095325;28;20044;-53
2023/12/04 07:38:35;;;;;;;20.88;9.60;;;0.30;99.90;;;;;;5095198;28;20047;-53
2023/12/04 07:41:00;;;;;;;19.25;8.95;;;0.40;99.90;;;;;;5093954;28;20044;-52
2023/12/04 07:43:27;;;;;;;18.77;9.20;;;0.40;99.90;;;;;;5094869;28;20126;-52
2023/12/04 07:45:55;;;;;;;18.75;8.65;;;0.30;99.90;;;;;;5095093;28;20056;-53
2023/12/04 07:48:20;;;;;;;19.45;8.80;;;0.30;99.90;;;;;;5093696;28;20403;-53
2023/12/04 07:50:46;;;;;;;17.38;8.32;;;0.40;99.90;;;;;;5095025;28;20048;-52
2023/12/04 07:53:13;;;;;;;18.83;8.88;;;0.30;99.90;;;;;;5095093;28;20055;-53
2023/12/04 07:55:38;;;;;;;18.98;8.80;;;0.40;99.90;;;;;;5094979;28;20525;-53
2023/12/04 07:58:04;;;;;;;17.58;8.63;;;0.40;99.90;;;;;;5094884;28;20047;-53
2023/12/04 08:00:30;;;;;;;22.08;8.80;;;0.30;99.90;;;;;;5094684;28;20048;-52
2023/12/04 08:02:55;;;;;;;17.60;8.77;;;0.40;99.90;;;;;;5094633;28;20508;-51
2023/12/04 08:05:21;;;;;;;18.83;7.93;;;0.40;99.90;;;;;;5094740;28;20063;-53
2023/12/04 08:07:47;;;;;;;16.98;8.73;;;0.30;99.90;;;;;;5094258;28;20055;-53
2023/12/04 08:10:13;;;;;;;18.23;8.27;;;0.40;99.90;;;;;;5094966;28;20501;-49
2023/12/04 08:12:39;;;;;;;16.05;8.25;;;0.40;99.90;;;;;;5094503;28;20134;-51
2023/12/04 08:15:06;;;;;;;18.63;8.43;;;0.40;99.90;;;;;;5093439;28;20061;-51
2023/12/04 08:17:31;;;;;;;16.83;8.18;;;0.40;99.90;;;;;;5094527;28;20048;-50
2023/12/04 08:19:57;;;;;;;17.80;9.55;;;0.40;99.90;;;;;;5076978;28;20043;-49
2023/12/04 08:22:22;;;;;;;18.67;8.77;;;0.40;99.90;;;;;;5093434;28;20097;-50
2023/12/04 08:24:48;;;;;;;18.33;9.00;;;0.40;99.90;;;;;;5093235;28;20048;-50
2023/12/04 08:27:14;;;;;;;19.42;8.32;;;0.40;99.90;;;;;;5093260;28;20087;-52
2023/12/04 08:29:40;;;;;;;18.38;8.80;;;0.50;99.90;;;;;;5094346;28;20063;-50
2023/12/04 08:32:06;;;;;;;17.10;8.40;;;0.50;99.90;;;;;;5094219;28;20426;-50
2023/12/04 08:34:32;;;;;;;16.13;7.70;;;0.50;99.90;;;;;;5094242;28;20143;-52
2023/12/04 08:36:57;;;;;;;15.43;7.03;;;0.50;99.90;;;;;;5094582;28;20055;-52
2023/12/04 08:39:23;;;;;;;17.48;8.13;;;0.50;99.90;;;;;;5094435;28;20428;-52
2023/12/04 08:41:49;;;;;;;17.30;7.72;;;0.50;99.90;;;;;;5094067;28;20079;-50
2023/12/04 08:44:15;;;;;;;16.58;8.07;;;0.50;99.90;;;;;;5093870;28;20047;-51
2023/12/04 08:46:42;;;;;;;16.58;7.90;;;0.50;99.90;;;;;;5093799;28;20101;-53
2023/12/04 08:49:07;;;;;;;;;;;0.60;99.90;;;;;;5094472;28;20052;-50
2023/12/04 08:51:33;;;;;;;16.75;7.60;;;0.50;99.90;;;;;;5094082;28;19924;-50
2023/12/04 08:53:59;;;;;;;15.35;7.32;;;0.50;99.90;;;;;;5093992;28;20379;-50
2023/12/04 08:56:24;;;;;;;16.77;8.20;;;0.60;99.90;;;;;;5094155;28;20126;-51
2023/12/04 08:58:50;;;;;;;15.75;7.55;;;0.60;99.90;;;;;;5092725;28;20430;-49
2023/12/04 09:01:16;;;;;;;17.00;7.60;;;0.60;99.90;;;;;;5092243;28;20546;-50
2023/12/04 09:03:42;;;;;;;16.15;6.97;;;0.60;99.90;;;;;;5092440;28;20056;-50
2023/12/04 09:06:08;;;;;;;15.48;7.13;;;0.60;99.90;;;;;;5093771;28;20105;-50
2023/12/04 09:08:34;;;;;;;14.90;7.50;;;0.60;99.90;;;;;;5093812;28;20405;-50
2023/12/04 09:11:00;;;;;;;14.73;7.32;;;0.60;99.90;;;;;;5093752;28;20126;-49
2023/12/04 09:13:26;;;;;;;15.90;7.00;;;0.70;99.90;;;;;;5093726;28;20127;-51
2023/12/04 09:15:52;;;;;;;16.80;7.40;;;0.70;99.90;;;;;;5093643;28;20689;-49
2023/12/04 09:18:18;;;;;;;15.27;6.75;;;0.60;99.90;;;;;;5093690;28;20094;-50
2023/12/04 09:20:44;;;;;;;15.32;6.35;;;0.70;99.90;;;;;;5097270;28;20048;-50
2023/12/04 09:23:09;;;;;;;13.90;7.15;;;0.70;99.90;;;;;;5097728;28;20536;-51
2023/12/04 09:25:36;;;;;;;14.70;7.25;;;0.70;99.90;;;;;;5098040;28;20541;-51
2023/12/04 09:28:02;;;;;;;14.20;6.80;;;0.70;99.90;;;;;;5097758;28;20078;-52
2023/12/04 09:30:28;;;;;;;15.67;7.07;;;0.70;99.90;;;;;;5097548;28;20135;-50
2023/12/04 09:32:54;;;;;;;15.57;7.00;;;0.70;99.90;;;;;;5098131;28;20274;-50
2023/12/04 09:35:20;;;;;;;12.50;5.93;;;0.70;99.90;;;;;;5097551;28;20479;-51
2023/12/04 09:37:46;;;;;;;15.18;7.40;;;0.70;99.90;;;;;;5097644;28;20054;-51
2023/12/04 09:40:12;;;;;;;12.95;6.80;;;0.70;99.90;;;;;;5096695;28;20048;-52
2023/12/04 09:42:38;;;;;;;12.93;5.85;;;0.70;99.90;;;;;;5096427;28;20036;-50
2023/12/04 09:45:05;;;;;;;13.20;6.50;;;0.70;99.90;;;;;;5097491;28;20406;-53
2023/12/04 09:47:32;;;;;;;15.02;7.13;;;0.70;99.90;;;;;;5097469;28;20048;-51
2023/12/04 09:49:58;;;;;;;14.98;6.47;;;0.70;99.90;;;;;;5097407;28;20173;-52
2023/12/04 09:52:27;;;;;;;13.30;6.20;;;0.70;99.90;;;;;;5097227;28;20136;-50
2023/12/04 09:54:53;;;;;;;14.32;6.50;;;0.70;99.90;;;;;;5097298;28;20052;-51
2023/12/04 09:57:19;;;;;;;12.27;6.05;;;0.70;99.90;;;;;;5096981;28;20426;-49
2023/12/04 09:59:46;;;;;;;12.73;6.30;;;0.70;99.90;;;;;;5096233;28;20044;-50
2023/12/04 10:02:12;;;;;;;12.40;5.95;;;0.70;99.90;;;;;;5096905;28;20087;-50
2023/12/04 10:04:38;;;;;;;15.68;7.00;;;0.70;99.90;;;;;;5097365;28;20160;-50
2023/12/04 10:07:04;;;;;;;12.63;6.00;;;0.80;99.90;;;;;;5097151;28;20051;-51
2023/12/04 10:09:30;;;;;;;13.77;6.55;;;0.90;99.90;;;;;;5096893;28;20075;-54
2023/12/04 10:11:56;;;;;;;13.40;6.15;;;0.80;99.90;;;;;;5096847;28;20044;-52
2023/12/04 10:14:23;;;;;;;12.98;6.55;;;0.80;99.90;;;;;;5096860;28;20048;-52
2023/12/04 10:16:49;;;;;;;14.68;6.80;;;0.80;99.90;;;;;;5097271;28;20048;-51
2023/12/04 10:19:27;;;;;;;14.50;5.85;;;0.80;99.90;;;;;;5095989;28;20051;-52
2023/12/04 10:21:55;;;;;;;13.20;5.93;;;0.80;99.90;;;;;;5096030;28;20113;-52
2023/12/04 10:24:38;;;;;;;12.50;5.72;;;0.80;99.90;;;;;;5095503;28;20040;-50
2023/12/04 10:27:11;;;;;;;12.00;5.88;;;0.90;99.90;;;;;;5095778;28;20502;-51
2023/12/04 10:29:52;;;;;;;13.77;6.10;;;0.90;99.90;;;;;;5096635;28;20478;-51
2023/12/04 10:32:23;;;;;;;14.15;5.95;;;0.90;99.90;;;;;;5095987;28;20098;-50
2023/12/04 10:34:49;;;;;;;13.43;6.10;;;0.90;99.90;;;;;;5096380;28;20451;-50
2023/12/04 10:37:15;;;;;;;13.10;6.25;;;0.90;99.90;;;;;;5096213;28;20131;-51
2023/12/04 10:39:49;;;;;;;13.73;5.72;;;1.00;99.90;;;;;;5096472;28;20083;-54
2023/12/04 10:42:25;;;;;;;10.98;5.53;;;1.00;99.90;;;;;;5096172;28;20090;-54
2023/12/04 10:44:52;;;;;;;13.00;6.32;;;1.00;99.90;;;;;;5096223;28;20501;-53
2023/12/04 10:47:21;;;;;;;13.77;6.60;;;1.00;99.90;;;;;;5096085;28;20546;-54
2023/12/04 10:49:49;;;;;;;12.88;5.53;;;1.00;99.90;;;;;;5095147;28;20056;-53
2023/12/04 10:52:16;;;;;;;10.45;5.40;;;1.00;99.90;;;;;;5096187;28;20234;-53
2023/12/04 10:54:41;;;;;;;12.70;5.75;;;1.10;99.90;;;;;;5096160;28;20080;-53
2023/12/04 10:57:08;;;;;;;11.27;5.47;;;1.00;99.90;;;;;;5096061;28;20083;-52
2023/12/04 10:59:38;;;;;;;12.88;5.47;;;1.00;99.90;;;;;;5094934;28;20519;-54
2023/12/04 11:02:08;;;;;;;11.95;5.50;;;1.10;99.90;;;;;;5095907;28;20403;-53
2023/12/04 11:04:36;;;;;;;9.98;5.10;;;1.00;99.90;;;;;;5096565;28;20056;-53
2023/12/04 11:07:05;;;;;;;11.52;5.40;;;1.00;99.90;;;;;;5095940;28;20090;-53
2023/12/04 11:09:34;;;;;;;12.38;5.60;;;1.00;99.90;;;;;;5095637;28;20505;-54
2023/12/04 11:12:05;;;;;;;11.32;4.97;;;1.10;99.90;;;;;;5094977;28;20048;-53
2023/12/04 11:14:39;;;;;;;10.65;4.70;;;1.00;99.90;;;;;;5095791;28;20044;-54
2023/12/04 11:17:11;;;;;;;12.07;5.28;;;1.10;99.90;;;;;;5095495;28;20471;-53
2023/12/04 11:20:06;;;;;;;11.95;5.43;;;1.10;99.90;;;;;;5095795;28;20143;-53
2023/12/04 11:22:32;;;;;;;11.98;5.63;;;1.10;99.90;;;;;;5095482;28;20044;-50
2023/12/04 11:24:58;;;;;;;11.13;5.53;;;1.10;99.90;;;;;;5095396;28;20376;-54
2023/12/04 11:27:24;;;;;;;10.00;4.70;;;1.10;99.90;;;;;;5095249;28;20048;-53
2023/12/04 11:29:51;;;;;;;9.63;4.90;;;1.10;99.90;;;;;;5095514;28;20044;-53
2023/12/04 11:32:17;;;;;;;9.63;4.68;;;1.10;99.90;;;;;;5095366;28;20051;-53
2023/12/04 11:34:51;;;;;;;11.55;5.10;;;1.10;99.90;;;;;;5095403;28;20056;-54
2023/12/04 11:37:19;;;;;;;11.00;5.38;;;1.00;99.90;;;;;;5095476;28;20063;-54
2023/12/04 11:39:48;;;;;;;12.73;5.78;;;1.10;99.90;;;;;;5095296;28;20044;-55
2023/12/04 11:42:18;;;;;;;12.88;5.93;;;1.10;99.90;;;;;;5094183;28;20048;-54
2023/12/04 11:44:44;;;;;;;11.23;5.32;;;1.10;99.90;;;;;;5094107;28;20083;-52
2023/12/04 11:47:11;;;;;;;12.25;5.78;;;1.10;99.90;;;;;;5094990;28;20113;-51
2023/12/04 11:49:36;;;;;;;11.38;5.22;;;1.00;99.90;;;;;;5094238;28;20052;-55
2023/12/04 11:52:06;;;;;;;13.70;5.50;;;1.10;99.90;;;;;;5094997;28;20056;-54
2023/12/04 11:55:03;;;;;;;12.07;5.47;;;1.10;99.90;;;;;;5093497;28;20494;-54
2023/12/04 11:57:36;;;;;;;10.90;5.22;;;1.10;99.90;;;;;;5094950;28;20094;-54
2023/12/04 12:00:10;;;;;;;13.00;5.65;;;1.10;99.90;;;;;;5094872;28;20040;-53
2023/12/04 12:02:37;;;;;;;12.30;5.78;;;1.10;99.90;;;;;;5094480;28;20052;-54
2023/12/04 12:05:03;;;;;;;12.23;5.70;;;1.10;99.90;;;;;;5093925;28;20059;-54
2023/12/04 12:07:29;;;;;;;11.75;5.40;;;1.10;99.90;;;;;;5094817;28;20047;-54
2023/12/04 12:09:55;;;;;;;11.35;5.28;;;1.10;99.90;;;;;;5093764;28;20044;-55
2023/12/04 12:12:21;;;;;;;11.07;5.40;;;1.20;99.90;;;;;;5094592;28;20048;-55
2023/12/04 12:14:47;;;;;;;12.73;5.65;;;1.20;99.90;;;;;;5094526;28;20614;-54
2023/12/04 12:17:13;;;;;;;13.15;5.85;;;1.20;99.90;;;;;;5094343;28;20498;-54
2023/12/04 12:19:39;;;;;;;10.18;5.18;;;1.10;99.90;;;;;;5094590;28;20079;-53
2023/12/04 12:22:05;;;;;;;11.82;5.47;;;1.10;99.90;;;;;;5094484;28;20482;-54
2023/12/04 12:24:31;;;;;;;10.75;5.10;;;1.10;99.90;;;;;;5094371;28;20050;-53
2023/12/04 12:26:56;;;;;;;11.43;5.03;;;1.10;99.90;;;;;;5093446;28;20051;-54
2023/12/04 12:29:22;;;;;;;10.18;5.07;;;1.20;99.90;;;;;;5094168;28;20051;-53
2023/12/04 12:31:48;;;;;;;13.40;6.25;;;1.10;99.90;;;;;;5094147;28;20132;-54
2023/12/04 12:34:13;;;;;;;11.73;5.20;;;1.10;99.90;;;;;;5094016;28;20110;-54
2023/12/04 12:36:40;;;;;;;12.02;5.18;;;1.10;99.90;;;;;;5094181;28;20048;-53
2023/12/04 12:39:08;;;;;;;10.63;5.15;;;1.20;99.90;;;;;;5094213;28;20048;-53